createdAt,value
2022-08-28T00:00:59.401Z,19.20
2022-08-28T00:03:26.217Z,19.00
2022-08-28T00:05:53.618Z,19.10
2022-08-28T00:08:21.158Z,19.10
2022-08-28T00:10:48.302Z,19.10
2022-08-28T00:13:19.182Z,19.10
2022-08-28T00:15:49.311Z,19.10
2022-08-28T00:18:17.564Z,19.20
2022-08-28T00:20:46.453Z,19.10
2022-08-28T00:23:13.491Z,19.10
2022-08-28T00:25:40.262Z,19.10
2022-08-28T00:28:10.199Z,19.00
2022-08-28T00:30:43.696Z,19.00
2022-08-28T00:33:15.424Z,19.00
2022-08-28T00:35:43.306Z,18.90
2022-08-28T00:38:11.706Z,18.90
2022-08-28T00:40:40.411Z,18.90
2022-08-28T00:43:08.886Z,18.90
2022-08-28T00:45:39.810Z,18.90
2022-08-28T00:48:07.084Z,18.90
2022-08-28T00:51:00.669Z,18.80
2022-08-28T00:53:30.019Z,18.70
2022-08-28T00:56:01.320Z,18.50
2022-08-28T00:58:28.976Z,18.60
2022-08-28T01:00:55.886Z,18.70
2022-08-28T01:03:25.175Z,18.70
2022-08-28T01:05:53.878Z,18.70
2022-08-28T01:08:20.770Z,18.50
2022-08-28T01:10:54.129Z,18.50
2022-08-28T01:13:22.281Z,18.50
2022-08-28T01:15:51.044Z,18.40
2022-08-28T01:18:19.063Z,18.30
2022-08-28T01:20:53.876Z,18.30
2022-08-28T01:23:39.289Z,18.40
2022-08-28T01:26:11.729Z,18.30
2022-08-28T01:28:39.272Z,18.20
2022-08-28T01:31:09.113Z,18.10
2022-08-28T01:33:35.871Z,18.00
2022-08-28T01:36:08.141Z,18.10
2022-08-28T01:38:34.995Z,18.20
2022-08-28T01:41:01.715Z,18.30
2022-08-28T01:43:28.452Z,18.30
2022-08-28T01:46:01.865Z,18.30
2022-08-28T01:48:30.214Z,18.30
2022-08-28T01:50:57.281Z,18.30
2022-08-28T01:53:26.405Z,18.30
2022-08-28T01:56:01.701Z,18.20
2022-08-28T01:58:30.680Z,18.20
2022-08-28T02:00:58.369Z,18.30
2022-08-28T02:03:25.324Z,18.40
2022-08-28T02:05:52.356Z,18.30
2022-08-28T02:08:20.295Z,18.20
2022-08-28T02:10:47.187Z,18.10
2022-08-28T02:13:14.131Z,18.20
2022-08-28T02:15:42.887Z,18.20
2022-08-28T02:18:10.468Z,18.20
2022-08-28T02:20:37.484Z,18.20
2022-08-28T02:23:04.821Z,18.20
2022-08-28T02:25:31.652Z,18.20
2022-08-28T02:27:58.465Z,18.20
2022-08-28T02:30:25.448Z,18.10
2022-08-28T02:32:52.379Z,18.20
2022-08-28T02:35:20.713Z,18.10
2022-08-28T02:37:49.485Z,18.20
2022-08-28T02:40:18.777Z,18.30
2022-08-28T02:42:45.951Z,18.10
2022-08-28T02:45:14.384Z,18.00
2022-08-28T02:47:42.899Z,18.00
2022-08-28T02:50:13.130Z,18.00
2022-08-28T02:52:41.324Z,18.00
2022-08-28T02:55:09.298Z,17.90
2022-08-28T02:57:36.280Z,17.80
2022-08-28T03:00:06.233Z,17.80
2022-08-28T03:02:33.092Z,17.90
2022-08-28T03:05:00.525Z,17.90
2022-08-28T03:07:28.882Z,17.80
2022-08-28T03:09:56.287Z,17.70
2022-08-28T03:12:24.397Z,17.50
2022-08-28T03:14:55.170Z,17.40
2022-08-28T03:17:23.549Z,17.40
2022-08-28T03:19:50.396Z,17.30
2022-08-28T03:22:38.628Z,17.30
2022-08-28T03:25:07.117Z,17.30
2022-08-28T03:27:34.138Z,17.40
2022-08-28T03:30:02.737Z,17.40
2022-08-28T03:32:29.731Z,17.50
2022-08-28T03:34:56.443Z,17.30
2022-08-28T03:37:23.410Z,17.20
2022-08-28T03:39:50.352Z,17.20
2022-08-28T03:42:17.383Z,17.30
2022-08-28T03:44:44.243Z,17.40
2022-08-28T03:47:12.392Z,17.30
2022-08-28T03:49:39.883Z,17.50
2022-08-28T03:52:06.652Z,17.60
2022-08-28T03:54:33.598Z,17.50
2022-08-28T03:57:00.471Z,17.40
2022-08-28T03:59:31.705Z,17.40
2022-08-28T04:02:00.506Z,17.30
2022-08-28T04:04:27.833Z,17.40
2022-08-28T04:06:54.794Z,17.40
2022-08-28T04:09:21.542Z,17.30
2022-08-28T04:11:48.227Z,17.20
2022-08-28T04:14:14.950Z,17.20
2022-08-28T04:16:41.810Z,17.10
2022-08-28T04:19:08.758Z,17.00
2022-08-28T04:21:35.522Z,16.90
2022-08-28T04:24:03.571Z,17.00
2022-08-28T04:26:36.668Z,17.00
2022-08-28T04:29:04.833Z,17.00
2022-08-28T04:31:32.908Z,16.90
2022-08-28T04:34:01.940Z,17.00
2022-08-28T04:36:29.509Z,17.00
2022-08-28T04:38:58.672Z,17.00
2022-08-28T04:41:25.689Z,17.00
2022-08-28T04:43:53.784Z,17.00
2022-08-28T04:46:20.597Z,17.00
2022-08-28T04:48:47.386Z,16.90
2022-08-28T04:51:17.438Z,16.90
2022-08-28T04:53:44.381Z,16.80
2022-08-28T04:56:12.876Z,16.80
2022-08-28T04:58:42.369Z,16.80
2022-08-28T05:01:19.225Z,16.90
2022-08-28T05:03:47.972Z,16.90
2022-08-28T05:06:16.205Z,16.70
2022-08-28T05:08:43.144Z,16.70
2022-08-28T05:11:32.791Z,16.70
2022-08-28T05:14:04.576Z,16.80
2022-08-28T05:16:32.103Z,16.70
2022-08-28T05:19:02.980Z,16.70
2022-08-28T05:21:29.732Z,16.70
2022-08-28T05:23:57.910Z,16.70
2022-08-28T05:26:26.764Z,16.70
2022-08-28T05:28:56.015Z,16.90
2022-08-28T05:31:24.229Z,16.90
2022-08-28T05:33:52.817Z,17.10
2022-08-28T05:36:22.112Z,17.20
2022-08-28T05:38:50.481Z,17.40
2022-08-28T05:41:22.722Z,17.50
2022-08-28T05:43:50.043Z,17.60
2022-08-28T05:46:17.772Z,17.70
2022-08-28T05:48:45.676Z,17.70
2022-08-28T05:51:14.587Z,17.80
2022-08-28T05:53:42.846Z,17.80
2022-08-28T05:56:12.454Z,17.90
2022-08-28T05:58:40.475Z,17.80
2022-08-28T06:01:14.537Z,17.80
2022-08-28T06:03:43.263Z,17.90
2022-08-28T06:06:11.628Z,17.90
2022-08-28T06:08:39.678Z,18.00
2022-08-28T06:11:26.043Z,18.10
2022-08-28T06:13:54.122Z,18.10
2022-08-28T06:16:21.691Z,18.10
2022-08-28T06:18:48.538Z,18.00
2022-08-28T06:21:15.267Z,17.90
2022-08-28T06:23:42.060Z,17.90
2022-08-28T06:26:08.832Z,18.10
2022-08-28T06:28:36.154Z,18.10
2022-08-28T06:31:23.238Z,18.10
2022-08-28T06:33:51.451Z,18.10
2022-08-28T06:36:18.106Z,18.40
2022-08-28T06:38:46.820Z,18.40
2022-08-28T06:41:15.568Z,18.30
2022-08-28T06:43:42.687Z,18.30
2022-08-28T06:46:09.663Z,18.40
2022-08-28T06:48:36.786Z,18.50
2022-08-28T06:51:07.418Z,18.50
2022-08-28T06:53:34.536Z,18.50
2022-08-28T06:56:07.242Z,18.80
2022-08-28T06:58:38.780Z,18.70
2022-08-28T07:01:10.427Z,18.80
2022-08-28T07:03:37.473Z,18.90
2022-08-28T07:06:13.121Z,19.00
2022-08-28T07:08:41.695Z,19.00
2022-08-28T07:11:14.354Z,19.00
2022-08-28T07:13:42.808Z,19.10
2022-08-28T07:16:10.526Z,19.20
2022-08-28T07:18:38.506Z,19.30
2022-08-28T07:21:08.056Z,19.40
2022-08-28T07:23:40.157Z,19.50
2022-08-28T07:26:10.959Z,19.60
2022-08-28T07:28:37.775Z,19.60
2022-08-28T07:31:09.850Z,19.60
2022-08-28T07:33:37.849Z,19.70
2022-08-28T07:36:08.066Z,19.90
2022-08-28T07:38:42.603Z,19.90
2022-08-28T07:41:24.354Z,20.20
2022-08-28T07:44:10.436Z,20.30
2022-08-28T07:46:38.500Z,20.40
2022-08-28T07:49:08.146Z,20.50
2022-08-28T07:51:35.513Z,20.60
2022-08-28T07:54:04.025Z,20.70
2022-08-28T07:56:32.075Z,20.80
2022-08-28T07:59:00.211Z,21.00
2022-08-28T08:01:30.719Z,20.70
2022-08-28T08:04:01.615Z,20.90
2022-08-28T08:06:33.855Z,20.90
2022-08-28T08:09:01.993Z,20.70
2022-08-28T08:11:32.549Z,20.70
2022-08-28T08:14:05.310Z,20.90
2022-08-28T08:16:35.594Z,21.10
2022-08-28T08:19:03.419Z,21.10
2022-08-28T08:21:30.831Z,20.90
2022-08-28T08:23:58.287Z,21.00
2022-08-28T08:26:30.199Z,21.10
2022-08-28T08:28:57.318Z,21.20
2022-08-28T08:31:27.176Z,21.20
2022-08-28T08:34:01.471Z,21.30
2022-08-28T08:36:30.529Z,21.30
2022-08-28T08:38:59.454Z,21.50
2022-08-28T08:41:41.131Z,21.70
2022-08-28T08:44:17.860Z,21.90
2022-08-28T08:47:16.228Z,22.00
2022-08-28T08:50:01.737Z,21.70
2022-08-28T08:52:29.141Z,22.00
2022-08-28T08:55:23.091Z,22.00
2022-08-28T08:58:34.008Z,21.90
2022-08-28T09:01:03.779Z,21.90
2022-08-28T09:03:49.188Z,21.80
2022-08-28T09:06:27.379Z,21.90
2022-08-28T09:09:00.054Z,22.10
2022-08-28T09:11:41.817Z,22.30
2022-08-28T09:14:35.274Z,22.50
2022-08-28T09:17:03.574Z,22.50
2022-08-28T09:19:30.401Z,22.30
2022-08-28T09:21:57.158Z,22.10
2022-08-28T09:24:42.624Z,22.20
2022-08-28T09:27:27.504Z,22.40
2022-08-28T09:30:14.576Z,22.40
2022-08-28T09:32:44.338Z,22.40
2022-08-28T09:35:33.041Z,22.40
2022-08-28T09:38:19.854Z,22.60
2022-08-28T09:41:05.308Z,22.60
2022-08-28T09:43:34.462Z,22.60
2022-08-28T09:46:05.483Z,22.60
2022-08-28T09:48:38.656Z,22.70
2022-08-28T09:51:29.308Z,22.80
2022-08-28T09:54:13.870Z,22.90
2022-08-28T09:56:44.739Z,22.90
2022-08-28T09:59:20.450Z,23.10
2022-08-28T10:01:50.018Z,23.00
2022-08-28T10:04:19.722Z,23.10
2022-08-28T10:06:53.067Z,23.00
2022-08-28T10:09:32.189Z,23.10
2022-08-28T10:12:23.292Z,23.10
2022-08-28T10:15:17.972Z,23.40
2022-08-28T10:17:53.744Z,23.50
2022-08-28T10:20:32.893Z,23.70
2022-08-28T10:23:05.227Z,23.60
2022-08-28T10:26:13.076Z,23.70
2022-08-28T10:28:56.613Z,23.60
2022-08-28T10:31:45.384Z,23.70
2022-08-28T10:34:43.056Z,23.80
2022-08-28T10:37:37.930Z,24.00
2022-08-28T10:40:21.825Z,23.90
2022-08-28T10:42:55.886Z,24.00
2022-08-28T10:45:27.042Z,24.10
2022-08-28T10:48:05.174Z,24.00
2022-08-28T10:50:54.699Z,23.80
2022-08-28T10:53:51.995Z,23.90
2022-08-28T10:56:28.691Z,23.80
2022-08-28T10:58:59.117Z,23.70
2022-08-28T11:01:30.676Z,23.60
2022-08-28T11:04:00.924Z,23.90
2022-08-28T11:06:33.557Z,23.70
2022-08-28T11:09:24.755Z,24.00
2022-08-28T11:12:07.007Z,23.90
2022-08-28T11:14:48.347Z,24.00
2022-08-28T11:17:25.353Z,23.80
2022-08-28T11:20:28.870Z,23.80
2022-08-28T11:23:20.162Z,23.70
2022-08-28T11:25:54.745Z,23.80
2022-08-28T11:28:24.449Z,24.00
2022-08-28T11:31:06.537Z,24.10
2022-08-28T11:33:52.679Z,24.20
2022-08-28T11:36:19.504Z,24.40
2022-08-28T11:38:46.812Z,24.50
2022-08-28T11:41:17.612Z,24.60
2022-08-28T11:43:46.555Z,24.80
2022-08-28T11:46:24.673Z,25.00
2022-08-28T11:51:54.872Z,25.10
2022-08-28T11:54:37.769Z,25.00
2022-08-28T11:57:28.257Z,25.10
2022-08-28T12:00:10.269Z,25.50
2022-08-28T12:02:45.020Z,25.30
2022-08-28T12:05:31.750Z,25.20
2022-08-28T12:08:01.787Z,25.20
2022-08-28T12:10:29.635Z,25.30
2022-08-28T12:13:05.571Z,25.50
2022-08-28T12:15:33.394Z,25.50
2022-08-28T12:18:16.793Z,25.70
2022-08-28T12:20:53.649Z,25.60
2022-08-28T12:23:58.934Z,25.70
2022-08-28T12:26:36.205Z,25.70
2022-08-28T12:29:06.999Z,25.50
2022-08-28T12:32:14.431Z,25.50
2022-08-28T12:34:58.767Z,25.40
2022-08-28T12:37:51.838Z,25.40
2022-08-28T12:40:37.899Z,25.00
2022-08-28T12:43:10.197Z,24.80
2022-08-28T12:45:45.340Z,25.00
2022-08-28T12:48:26.804Z,25.10
2022-08-28T12:50:59.961Z,25.40
2022-08-28T12:53:45.092Z,25.50
2022-08-28T12:56:14.149Z,25.30
2022-08-28T12:58:42.167Z,25.50
2022-08-28T13:01:29.048Z,25.70
2022-08-28T13:04:04.102Z,25.90
2022-08-28T13:06:33.867Z,25.40
2022-08-28T13:09:16.182Z,25.60
2022-08-28T13:11:51.372Z,25.80
2022-08-28T13:14:37.907Z,25.70
2022-08-28T13:17:05.459Z,25.50
2022-08-28T13:19:33.766Z,25.60
2022-08-28T13:22:03.845Z,25.70
2022-08-28T13:24:40.537Z,25.70
2022-08-28T13:27:09.544Z,26.00
2022-08-28T13:29:37.377Z,26.10
2022-08-28T13:32:14.849Z,25.80
2022-08-28T13:34:47.828Z,25.60
2022-08-28T13:37:41.221Z,25.70
2022-08-28T13:40:19.743Z,26.00
2022-08-28T13:45:30.566Z,25.70
2022-08-28T13:48:11.240Z,25.90
2022-08-28T13:50:40.100Z,25.80
2022-08-28T13:53:06.894Z,26.00
2022-08-28T13:55:33.783Z,26.00
2022-08-28T13:58:00.589Z,25.90
2022-08-28T14:00:30.397Z,26.30
2022-08-28T14:03:15.658Z,26.10
2022-08-28T14:05:43.355Z,26.20
2022-08-28T14:08:10.219Z,26.20
2022-08-28T14:10:36.977Z,26.00
2022-08-28T14:13:03.667Z,25.80
2022-08-28T14:15:30.421Z,26.20
2022-08-28T14:17:57.842Z,26.30
2022-08-28T14:20:24.610Z,26.10
2022-08-28T14:22:51.302Z,26.20
2022-08-28T14:25:18.126Z,26.20
2022-08-28T14:27:44.835Z,26.30
2022-08-28T14:30:12.032Z,26.40
2022-08-28T14:32:40.491Z,26.10
2022-08-28T14:35:07.695Z,26.20
2022-08-28T14:37:34.447Z,26.00
2022-08-28T14:40:01.343Z,26.40
2022-08-28T14:42:28.144Z,26.30
2022-08-28T14:44:54.880Z,26.40
2022-08-28T14:47:21.808Z,26.20
2022-08-28T14:49:49.178Z,26.20
2022-08-28T14:52:16.039Z,26.30
2022-08-28T14:54:42.767Z,26.20
2022-08-28T14:57:11.785Z,26.20
2022-08-28T14:59:38.950Z,26.30
2022-08-28T15:02:06.055Z,26.40
2022-08-28T15:04:37.965Z,26.30
2022-08-28T15:07:10.500Z,26.30
2022-08-28T15:09:39.487Z,26.40
2022-08-28T15:12:07.040Z,26.20
2022-08-28T15:14:34.589Z,26.30
2022-08-28T15:17:01.816Z,26.20
2022-08-28T15:19:30.087Z,26.20
2022-08-28T15:21:58.404Z,26.00
2022-08-28T15:24:28.655Z,26.10
2022-08-28T15:26:56.881Z,26.20
2022-08-28T15:29:23.854Z,26.20
2022-08-28T15:31:50.905Z,26.10
2022-08-28T15:34:24.176Z,26.10
2022-08-28T15:36:55.055Z,26.10
2022-08-28T15:39:46.561Z,26.10
2022-08-28T15:42:14.391Z,26.10
2022-08-28T15:44:42.033Z,26.10
2022-08-28T15:47:09.522Z,26.00
2022-08-28T15:49:44.822Z,26.10
2022-08-28T15:52:16.525Z,26.00
2022-08-28T15:54:43.427Z,26.00
2022-08-28T15:57:10.253Z,26.10
2022-08-28T15:59:48.955Z,26.10
2022-08-28T16:02:21.563Z,26.10
2022-08-28T16:04:49.211Z,26.00
2022-08-28T16:07:16.840Z,26.10
2022-08-28T16:09:43.733Z,26.00
2022-08-28T16:12:10.402Z,26.10
2022-08-28T16:14:37.307Z,26.20
2022-08-28T16:17:05.496Z,26.00
2022-08-28T16:19:37.550Z,26.00
2022-08-28T16:22:04.410Z,25.90
2022-08-28T16:24:31.212Z,25.90
2022-08-28T16:26:57.913Z,25.90
2022-08-28T16:29:24.680Z,25.90
2022-08-28T16:31:51.776Z,25.90
2022-08-28T16:34:19.668Z,25.90
2022-08-28T16:36:48.288Z,25.80
2022-08-28T16:39:15.337Z,25.80
2022-08-28T16:41:43.173Z,25.80
2022-08-28T16:44:09.968Z,25.80
2022-08-28T16:46:37.089Z,25.90
2022-08-28T16:49:04.153Z,25.80
2022-08-28T16:51:30.946Z,25.70
2022-08-28T16:53:58.042Z,25.70
2022-08-28T16:56:25.332Z,25.70
2022-08-28T16:58:53.095Z,25.60
2022-08-28T17:01:23.825Z,25.50
2022-08-28T17:03:52.011Z,25.50
2022-08-28T17:06:23.345Z,25.50
2022-08-28T17:08:55.885Z,25.40
2022-08-28T17:11:24.428Z,25.40
2022-08-28T17:13:51.238Z,25.40
2022-08-28T17:16:18.847Z,25.40
2022-08-28T17:18:52.574Z,25.30
2022-08-28T17:21:39.212Z,25.30
2022-08-28T17:24:06.898Z,25.20
2022-08-28T17:26:33.826Z,25.20
2022-08-28T17:29:00.588Z,25.10
2022-08-28T17:31:27.497Z,25.10
2022-08-28T17:33:54.413Z,25.00
2022-08-28T17:36:33.144Z,24.90
2022-08-28T17:39:05.158Z,24.90
2022-08-28T17:41:33.481Z,24.80
2022-08-28T17:44:01.221Z,24.70
2022-08-28T17:46:28.477Z,24.70
2022-08-28T17:48:56.372Z,24.60
2022-08-28T17:51:42.000Z,24.60
2022-08-28T17:54:10.840Z,24.50
2022-08-28T17:56:37.947Z,24.50
2022-08-28T17:59:05.085Z,24.50
2022-08-28T18:01:31.869Z,24.40
2022-08-28T18:03:58.874Z,24.40
2022-08-28T18:06:25.799Z,24.20
2022-08-28T18:08:52.642Z,24.10
2022-08-28T18:11:19.552Z,24.20
2022-08-28T18:13:46.952Z,24.10
2022-08-28T18:16:13.909Z,24.10
2022-08-28T18:18:41.591Z,24.00
2022-08-28T18:21:10.652Z,23.90
2022-08-28T18:23:37.650Z,23.80
2022-08-28T18:26:04.364Z,23.80
2022-08-28T18:28:32.817Z,23.70
2022-08-28T18:31:00.896Z,23.80
2022-08-28T18:33:27.681Z,23.70
2022-08-28T18:35:54.607Z,23.60
2022-08-28T18:38:22.930Z,23.60
2022-08-28T18:40:49.964Z,23.60
2022-08-28T18:43:20.240Z,23.40
2022-08-28T18:45:47.588Z,23.40
2022-08-28T18:48:15.279Z,23.40
2022-08-28T18:50:46.298Z,23.40
2022-08-28T18:53:18.025Z,23.40
2022-08-28T18:55:46.097Z,23.30
2022-08-28T18:58:14.950Z,23.30
2022-08-28T19:00:42.892Z,23.20
2022-08-28T19:03:09.817Z,23.20
2022-08-28T19:05:38.402Z,23.10
2022-08-28T19:08:06.061Z,23.00
2022-08-28T19:10:34.927Z,23.00
2022-08-28T19:13:03.313Z,22.90
2022-08-28T19:15:32.569Z,22.80
2022-08-28T19:18:03.061Z,22.80
2022-08-28T19:20:30.573Z,22.80
2022-08-28T19:22:58.513Z,22.70
2022-08-28T19:25:29.378Z,22.80
2022-08-28T19:28:01.510Z,22.80
2022-08-28T19:30:32.904Z,22.80
2022-08-28T19:33:02.679Z,22.70
2022-08-28T19:35:29.652Z,22.70
2022-08-28T19:37:56.441Z,22.80
2022-08-28T19:40:23.595Z,22.60
2022-08-28T19:42:50.471Z,22.50
2022-08-28T19:45:18.007Z,22.50
2022-08-28T19:47:44.981Z,22.40
2022-08-28T19:50:13.923Z,22.40
2022-08-28T19:52:43.091Z,22.20
2022-08-28T19:55:21.311Z,22.20
2022-08-28T19:57:49.314Z,22.20
2022-08-28T20:00:19.272Z,22.20
2022-08-28T20:02:46.725Z,22.20
2022-08-28T20:05:13.916Z,22.10
2022-08-28T20:07:41.262Z,22.00
2022-08-28T20:10:08.948Z,22.10
2022-08-28T20:12:38.528Z,22.10
2022-08-28T20:15:07.613Z,22.20
2022-08-28T20:17:43.609Z,22.00
2022-08-28T20:20:11.880Z,22.00
2022-08-28T20:22:38.933Z,22.10
2022-08-28T20:25:07.155Z,22.10
2022-08-28T20:27:34.127Z,22.10
2022-08-28T20:30:04.704Z,21.90
2022-08-28T20:32:37.383Z,21.80
2022-08-28T20:35:09.267Z,21.90
2022-08-28T20:37:44.858Z,22.00
2022-08-28T20:40:17.987Z,22.10
2022-08-28T20:42:45.554Z,22.00
2022-08-28T20:45:15.158Z,22.00
2022-08-28T20:47:42.174Z,21.90
2022-08-28T20:50:09.230Z,22.00
2022-08-28T20:52:36.269Z,21.90
2022-08-28T20:55:04.269Z,21.80
2022-08-28T20:57:31.065Z,21.70
2022-08-28T21:00:00.201Z,21.70
2022-08-28T21:02:29.524Z,21.60
2022-08-28T21:04:56.476Z,21.70
2022-08-28T21:07:25.041Z,21.60
2022-08-28T21:10:05.610Z,21.70
2022-08-28T21:12:35.469Z,21.60
2022-08-28T21:15:02.405Z,21.70
2022-08-28T21:17:30.701Z,21.80
2022-08-28T21:20:04.132Z,21.50
2022-08-28T21:22:31.691Z,21.40
2022-08-28T21:24:59.074Z,21.30
2022-08-28T21:27:26.004Z,21.10
2022-08-28T21:29:58.745Z,21.00
2022-08-28T21:32:26.680Z,20.90
2022-08-28T21:34:54.560Z,20.90
2022-08-28T21:37:21.573Z,20.80
2022-08-28T21:39:48.470Z,20.70
2022-08-28T21:42:15.196Z,20.80
2022-08-28T21:44:43.313Z,20.80
2022-08-28T21:47:18.553Z,20.90
2022-08-28T21:49:49.521Z,20.90
2022-08-28T21:52:18.232Z,20.90
2022-08-28T21:54:45.062Z,20.90
2022-08-28T21:57:11.858Z,20.90
2022-08-28T21:59:38.987Z,21.00
2022-08-28T22:02:06.595Z,20.80
2022-08-28T22:04:33.850Z,20.90
2022-08-28T22:07:00.796Z,20.90
2022-08-28T22:09:27.871Z,20.90
2022-08-28T22:11:54.547Z,20.90
2022-08-28T22:14:21.260Z,20.80
2022-08-28T22:16:48.018Z,20.50
2022-08-28T22:19:14.793Z,20.50
2022-08-28T22:21:59.935Z,20.30
2022-08-28T22:24:26.736Z,20.30
2022-08-28T22:26:57.518Z,20.30
2022-08-28T22:29:24.696Z,20.20
2022-08-28T22:31:51.476Z,20.30
2022-08-28T22:34:18.273Z,20.40
2022-08-28T22:36:45.004Z,20.40
2022-08-28T22:39:11.709Z,20.50
2022-08-28T22:41:38.704Z,20.50
2022-08-28T22:44:05.524Z,20.50
2022-08-28T22:46:32.249Z,20.40
2022-08-28T22:48:59.446Z,20.30
2022-08-28T22:51:26.207Z,20.20
2022-08-28T22:53:53.100Z,20.20
2022-08-28T22:56:20.370Z,20.10
2022-08-28T22:58:47.222Z,20.20
2022-08-28T23:01:17.852Z,20.10
2022-08-28T23:03:45.608Z,20.10
2022-08-28T23:06:13.787Z,20.20
2022-08-28T23:08:40.651Z,20.10
2022-08-28T23:11:07.456Z,20.10
2022-08-28T23:13:34.303Z,20.00
2022-08-28T23:16:01.542Z,20.00
2022-08-28T23:18:29.484Z,19.90
2022-08-28T23:20:56.701Z,19.80
2022-08-28T23:23:24.767Z,19.70
2022-08-28T23:25:51.946Z,19.70
2022-08-28T23:28:19.305Z,19.50
2022-08-28T23:30:48.490Z,19.40
2022-08-28T23:33:23.687Z,19.30
2022-08-28T23:35:52.057Z,19.40
2022-08-28T23:38:19.300Z,19.60
2022-08-28T23:40:48.118Z,19.60
2022-08-28T23:43:15.440Z,19.50
2022-08-28T23:45:43.744Z,19.40
2022-08-28T23:48:11.364Z,19.20
2022-08-28T23:50:40.984Z,19.10
2022-08-28T23:53:08.498Z,19.20
2022-08-28T23:55:36.562Z,19.20
2022-08-28T23:58:03.794Z,19.20
